sensor_id;sensor_type;location;lat;lon;timestamp;temperature;humidity
13856;DHT22;6998;53.608;9.958;2023-02-26T02:01:08;-0.40;99.90
13856;DHT22;6998;53.608;9.958;2023-02-26T02:32:17;-0.90;99.90
13856;DHT22;6998;53.608;9.958;2023-02-26T02:42:16;-1.20;99.90
13856;DHT22;6998;53.608;9.958;2023-02-26T02:45:37;-1.40;99.90
13856;DHT22;6998;53.608;9.958;2023-02-26T02:48:32;-1.40;99.90
13856;DHT22;6998;53.608;9.958;2023-02-26T02:55:02;-1.40;99.90
13856;DHT22;6998;53.608;9.958;2023-02-26T02:58:09;-1.40;99.90
13856;DHT22;6998;53.608;9.958;2023-02-26T03:01:21;-1.40;99.90
13856;DHT22;6998;53.608;9.958;2023-02-26T03:04:17;-1.40;99.90
13856;DHT22;6998;53.608;9.958;2023-02-26T03:07:02;-1.50;99.90
13856;DHT22;6998;53.608;9.958;2023-02-26T03:09:34;-1.60;99.90
13856;DHT22;6998;53.608;9.958;2023-02-26T03:15:45;-1.70;99.90
13856;DHT22;6998;53.608;9.958;2023-02-26T03:18:44;-1.70;99.90
13856;DHT22;6998;53.608;9.958;2023-02-26T03:25:15;-1.60;99.90
13856;DHT22;6998;53.608;9.958;2023-02-26T03:31:59;-1.70;99.90
13856;DHT22;6998;53.608;9.958;2023-02-26T03:35:03;-1.70;99.90
13856;DHT22;6998;53.608;9.958;2023-02-26T03:37:51;-1.80;99.90
13856;DHT22;6998;53.608;9.958;2023-02-26T03:44:30;-1.70;99.90
13856;DHT22;6998;53.608;9.958;2023-02-26T03:50:27;-1.60;99.90
13856;DHT22;6998;53.608;9.958;2023-02-26T03:53:39;-1.60;99.90
13856;DHT22;6998;53.608;9.958;2023-02-26T03:56:20;-1.70;99.90
13856;DHT22;6998;53.608;9.958;2023-02-26T03:59:46;-1.80;99.90
13856;DHT22;6998;53.608;9.958;2023-02-26T04:02:21;-1.90;99.90
13856;DHT22;6998;53.608;9.958;2023-02-26T04:04:56;-1.90;99.90
13856;DHT22;6998;53.608;9.958;2023-02-26T04:08:02;-1.90;99.90
13856;DHT22;6998;53.608;9.958;2023-02-26T04:10:54;-2.00;99.90
13856;DHT22;6998;53.608;9.958;2023-02-26T04:20:30;-2.20;99.90
13856;DHT22;6998;53.608;9.958;2023-02-26T04:23:10;-2.20;99.90
13856;DHT22;6998;53.608;9.958;2023-02-26T04:25:45;-2.20;99.90
13856;DHT22;6998;53.608;9.958;2023-02-26T04:28:24;-2.10;99.90
13856;DHT22;6998;53.608;9.958;2023-02-26T04:31:19;-2.10;99.90
13856;DHT22;6998;53.608;9.958;2023-02-26T04:34:01;-2.30;99.90
13856;DHT22;6998;53.608;9.958;2023-02-26T04:43:54;-2.20;99.90
13856;DHT22;6998;53.608;9.958;2023-02-26T04:46:29;-2.20;99.90
13856;DHT22;6998;53.608;9.958;2023-02-26T04:49:27;-2.20;99.90
13856;DHT22;6998;53.608;9.958;2023-02-26T04:52:37;-2.30;99.90
13856;DHT22;6998;53.608;9.958;2023-02-26T04:55:16;-2.40;99.90
13856;DHT22;6998;53.608;9.958;2023-02-26T04:58:05;-2.40;99.90
13856;DHT22;6998;53.608;9.958;2023-02-26T05:01:04;-2.50;99.90
13856;DHT22;6998;53.608;9.958;2023-02-26T05:03:48;-2.50;99.90
13856;DHT22;6998;53.608;9.958;2023-02-26T05:06:53;-2.50;99.90
13856;DHT22;6998;53.608;9.958;2023-02-26T05:09:34;-2.50;99.90
13856;DHT22;6998;53.608;9.958;2023-02-26T05:12:17;-2.40;99.90
13856;DHT22;6998;53.608;9.958;2023-02-26T05:15:15;-2.60;99.90
13856;DHT22;6998;53.608;9.958;2023-02-26T05:21:11;-2.60;99.90
13856;DHT22;6998;53.608;9.958;2023-02-26T05:23:45;-2.60;99.90
13856;DHT22;6998;53.608;9.958;2023-02-26T05:26:17;-2.70;99.90
13856;DHT22;6998;53.608;9.958;2023-02-26T05:29:07;-2.70;99.90
13856;DHT22;6998;53.608;9.958;2023-02-26T05:31:57;-2.70;99.90
13856;DHT22;6998;53.608;9.958;2023-02-26T05:34:59;-2.50;99.90
13856;DHT22;6998;53.608;9.958;2023-02-26T05:38:03;-2.50;99.90
13856;DHT22;6998;53.608;9.958;2023-02-26T05:40:35;-2.40;99.90
13856;DHT22;6998;53.608;9.958;2023-02-26T05:43:22;-2.40;99.90
13856;DHT22;6998;53.608;9.958;2023-02-26T05:46:26;-2.50;99.90
13856;DHT22;6998;53.608;9.958;2023-02-26T05:49:01;-2.40;99.90
13856;DHT22;6998;53.608;9.958;2023-02-26T05:51:44;-2.50;99.90
13856;DHT22;6998;53.608;9.958;2023-02-26T05:57:40;-2.60;99.90
13856;DHT22;6998;53.608;9.958;2023-02-26T06:00:10;-2.60;99.90
13856;DHT22;6998;53.608;9.958;2023-02-26T06:02:46;-2.50;99.90
13856;DHT22;6998;53.608;9.958;2023-02-26T06:05:29;-2.40;99.90
13856;DHT22;6998;53.608;9.958;2023-02-26T06:08:03;-2.50;99.90
13856;DHT22;6998;53.608;9.958;2023-02-26T06:11:01;-2.40;99.90
13856;DHT22;6998;53.608;9.958;2023-02-26T06:13:33;-2.40;99.90
13856;DHT22;6998;53.608;9.958;2023-02-26T06:16:01;-2.50;99.90
13856;DHT22;6998;53.608;9.958;2023-02-26T06:18:35;-2.30;99.90
13856;DHT22;6998;53.608;9.958;2023-02-26T06:21:03;-2.40;99.90
13856;DHT22;6998;53.608;9.958;2023-02-26T06:23:38;-2.40;99.90
13856;DHT22;6998;53.608;9.958;2023-02-26T06:26:07;-2.30;99.90
13856;DHT22;6998;53.608;9.958;2023-02-26T06:28:46;-2.40;99.90
13856;DHT22;6998;53.608;9.958;2023-02-26T06:31:20;-2.20;99.90
13856;DHT22;6998;53.608;9.958;2023-02-26T06:34:17;-2.10;99.90
13856;DHT22;6998;53.608;9.958;2023-02-26T06:36:56;-2.10;99.90
13856;DHT22;6998;53.608;9.958;2023-02-26T06:39:33;-2.00;99.90
13856;DHT22;6998;53.608;9.958;2023-02-26T06:42:11;-1.90;99.90
13856;DHT22;6998;53.608;9.958;2023-02-26T06:45:31;-1.90;99.90
13856;DHT22;6998;53.608;9.958;2023-02-26T06:48:07;-1.80;99.90
13856;DHT22;6998;53.608;9.958;2023-02-26T06:54:19;-1.60;99.90
13856;DHT22;6998;53.608;9.958;2023-02-26T06:57:52;-1.50;99.90
13856;DHT22;6998;53.608;9.958;2023-02-26T08:09:59;-0.50;99.90
13856;DHT22;6998;53.608;9.958;2023-02-26T08:12:36;-0.50;99.90
13856;DHT22;6998;53.608;9.958;2023-02-26T08:52:50;0.90;99.90
13856;DHT22;6998;53.608;9.958;2023-02-26T09:02:31;1.10;99.90
13856;DHT22;6998;53.608;9.958;2023-02-26T09:05:34;1.20;99.90
13856;DHT22;6998;53.608;9.958;2023-02-26T09:11:32;1.40;99.90
13856;DHT22;6998;53.608;9.958;2023-02-26T09:15:07;1.60;99.90
13856;DHT22;6998;53.608;9.958;2023-02-26T09:18:02;1.80;99.90
13856;DHT22;6998;53.608;9.958;2023-02-26T09:24:18;2.10;99.90
13856;DHT22;6998;53.608;9.958;2023-02-26T10:08:29;3.00;99.90
13856;DHT22;6998;53.608;9.958;2023-02-26T10:45:24;4.20;99.90
13856;DHT22;6998;53.608;9.958;2023-02-26T11:30:44;5.10;99.90
13856;DHT22;6998;53.608;9.958;2023-02-26T11:37:17;5.00;99.90
13856;DHT22;6998;53.608;9.958;2023-02-26T13:24:37;5.60;99.90
